地図

経路データ

SID SEASON NUMBER BASIN SUBBASIN NAME ISO_TIME NATURE LAT LON WMO_WIND WMO_PRES WMO_AGENCY TRACK_TYPE DIST2LAND LANDFALL IFLAG USA_AGENCY USA_ATCF_ID USA_LAT USA_LON USA_RECORD USA_STATUS USA_WIND USA_PRES USA_SSHS USA_R34_NE USA_R34_SE USA_R34_SW USA_R34_NW USA_R50_NE USA_R50_SE USA_R50_SW USA_R50_NW USA_R64_NE USA_R64_SE USA_R64_SW USA_R64_NW USA_POCI USA_ROCI USA_RMW USA_EYE TOKYO_LAT TOKYO_LON TOKYO_GRADE TOKYO_WIND TOKYO_PRES TOKYO_R50_DIR TOKYO_R50_LONG TOKYO_R50_SHORT TOKYO_R30_DIR TOKYO_R30_LONG TOKYO_R30_SHORT TOKYO_LAND CMA_LAT CMA_LON CMA_CAT CMA_WIND CMA_PRES HKO_LAT HKO_LON HKO_CAT HKO_WIND HKO_PRES NEWDELHI_LAT NEWDELHI_LON NEWDELHI_GRADE NEWDELHI_WIND NEWDELHI_PRES NEWDELHI_CI NEWDELHI_DP NEWDELHI_POCI REUNION_LAT REUNION_LON REUNION_TYPE REUNION_WIND REUNION_PRES REUNION_TNUM REUNION_CI REUNION_RMW REUNION_R34_NE REUNION_R34_SE REUNION_R34_SW REUNION_R34_NW REUNION_R50_NE REUNION_R50_SE REUNION_R50_SW REUNION_R50_NW REUNION_R64_NE REUNION_R64_SE REUNION_R64_SW REUNION_R64_NW BOM_LAT BOM_LON BOM_TYPE BOM_WIND BOM_PRES BOM_TNUM BOM_CI BOM_RMW BOM_R34_NE BOM_R34_SE BOM_R34_SW BOM_R34_NW BOM_R50_NE BOM_R50_SE BOM_R50_SW BOM_R50_NW BOM_R64_NE BOM_R64_SE BOM_R64_SW BOM_R64_NW BOM_ROCI BOM_POCI BOM_EYE BOM_POS_METHOD BOM_PRES_METHOD NADI_LAT NADI_LON NADI_CAT NADI_WIND NADI_PRES WELLINGTON_LAT WELLINGTON_LON WELLINGTON_WIND WELLINGTON_PRES DS824_LAT DS824_LON DS824_STAGE DS824_WIND DS824_PRES TD9636_LAT TD9636_LON TD9636_STAGE TD9636_WIND TD9636_PRES TD9635_LAT TD9635_LON TD9635_WIND TD9635_PRES TD9635_ROCI NEUMANN_LAT NEUMANN_LON NEUMANN_CLASS NEUMANN_WIND NEUMANN_PRES MLC_LAT MLC_LON MLC_CLASS MLC_WIND MLC_PRES USA_GUST BOM_GUST BOM_GUST_PER REUNION_GUST REUNION_GUST_PER USA_SEAHGT USA_SEARAD_NE USA_SEARAD_SE USA_SEARAD_SW USA_SEARAD_NW STORM_SPEED STORM_DIR
1990206N34285 1990 56 NA NA BERTHA 1990-07-24 12:00:00 SS 34.0000 -75.0000 20 1012 hurdat_atl main 155 155 O_____________ hurdat_atl AL031990 34.0000 -75.0000 SD 20 1012 -2 11 111
1990206N34285 1990 56 NA NA BERTHA 1990-07-24 15:00:00 SS 33.8130 -74.3971 main 212 212 P_____________ AL031990 33.8130 -74.3971 SD 20 1012 -2 11 112
1990206N34285 1990 56 NA NA BERTHA 1990-07-24 18:00:00 SS 33.6000 -73.8000 20 1013 hurdat_atl main 271 271 O_____________ hurdat_atl AL031990 33.6000 -73.8000 SD 20 1013 -2 11 116
1990206N34285 1990 56 NA NA BERTHA 1990-07-24 21:00:00 SS 33.3374 -73.2203 main 336 336 P_____________ AL031990 33.3374 -73.2203 SD 20 1013 -2 11 123
1990206N34285 1990 56 NA NA BERTHA 1990-07-25 00:00:00 SS 33.0000 -72.7000 20 1013 hurdat_atl main 393 393 O_____________ hurdat_atl AL031990 33.0000 -72.7000 SD 20 1013 -2 11 133
1990206N34285 1990 56 NA NA BERTHA 1990-07-25 03:00:00 SS 32.5725 -72.2246 main 456 456 P_____________ AL031990 32.5725 -72.2246 SD 20 1013 -2 11 143
1990206N34285 1990 56 NA NA BERTHA 1990-07-25 06:00:00 SS 32.1000 -71.9000 20 1013 hurdat_atl main 512 512 O_____________ hurdat_atl AL031990 32.1000 -71.9000 SD 20 1013 -2 10 158
1990206N34285 1990 56 NA NA BERTHA 1990-07-25 09:00:00 SS 31.6197 -71.7604 main 556 556 P_____________ AL031990 31.6197 -71.7604 SD 20 1012 -2 9 175
1990206N34285 1990 56 NA NA BERTHA 1990-07-25 12:00:00 SS 31.2000 -71.8000 20 1012 hurdat_atl main 586 586 O_____________ hurdat_atl AL031990 31.2000 -71.8000 SD 20 1012 -2 7 192
1990206N34285 1990 56 NA NA BERTHA 1990-07-25 15:00:00 SS 30.8975 -71.9478 main 602 596 P_____________ AL031990 30.8975 -71.9478 SD 22 1011 -2 6 214
1990206N34285 1990 56 NA NA BERTHA 1990-07-25 18:00:00 SS 30.7000 -72.2000 25 1011 hurdat_atl main 600 590 O_____________ hurdat_atl AL031990 30.7000 -72.2000 SD 25 1011 -2 6 235
1990206N34285 1990 56 NA NA BERTHA 1990-07-25 21:00:00 SS 30.5775 -72.4848 main 590 582 P_____________ AL031990 30.5775 -72.4848 SD 25 1010 -2 6 249
1990206N34285 1990 56 NA NA BERTHA 1990-07-26 00:00:00 SS 30.5000 -72.8000 25 1010 hurdat_atl main 582 571 O_____________ hurdat_atl AL031990 30.5000 -72.8000 SD 25 1010 -2 6 251
1990206N34285 1990 56 NA NA BERTHA 1990-07-26 03:00:00 SS 30.3999 -73.0999 main 575 570 P_____________ AL031990 30.3999 -73.0999 SD 25 1010 -2 6 249
1990206N34285 1990 56 NA NA BERTHA 1990-07-26 06:00:00 SS 30.3000 -73.4000 25 1010 hurdat_atl main 570 565 O_____________ hurdat_atl AL031990 30.3000 -73.4000 SD 25 1010 -2 6 250
1990206N34285 1990 56 NA NA BERTHA 1990-07-26 09:00:00 SS 30.2074 -73.6999 main 566 557 P_____________ AL031990 30.2074 -73.6999 SD 25 1010 -2 6 249
1990206N34285 1990 56 NA NA BERTHA 1990-07-26 12:00:00 SS 30.1000 -74.0000 25 1010 hurdat_atl main 563 557 O_____________ hurdat_atl AL031990 30.1000 -74.0000 SD 25 1010 -2 6 244
1990206N34285 1990 56 NA NA BERTHA 1990-07-26 15:00:00 SS 29.9499 -74.3000 main 566 554 P_____________ AL031990 29.9499 -74.3000 SD 25 1010 -2 6 240
1990206N34285 1990 56 NA NA BERTHA 1990-07-26 18:00:00 SS 29.8000 -74.6000 25 1010 hurdat_atl main 558 552 O_____________ hurdat_atl AL031990 29.8000 -74.6000 SD 25 1010 -2 6 245
1990206N34285 1990 56 NA NA BERTHA 1990-07-26 21:00:00 SS 29.7000 -74.9149 main 552 528 P_____________ AL031990 29.7000 -74.9149 SD 25 1009 -2 6 249
1990206N34285 1990 56 NA NA BERTHA 1990-07-27 00:00:00 SS 29.6000 -75.2000 25 1009 hurdat_atl main 528 507 O_____________ hurdat_atl AL031990 29.6000 -75.2000 SD 25 1009 -2 5 241
1990206N34285 1990 56 NA NA BERTHA 1990-07-27 03:00:00 SS 29.4499 -75.4300 main 505 484 P_____________ AL031990 29.4499 -75.4300 SD 27 1008 -2 5 229
1990206N34285 1990 56 NA NA BERTHA 1990-07-27 06:00:00 TS 29.3000 -75.6000 30 1008 hurdat_atl main 484 473 O_____________ hurdat_atl AL031990 29.3000 -75.6000 TD 30 1008 -1 4 225
1990206N34285 1990 56 NA NA BERTHA 1990-07-27 09:00:00 TS 29.1999 -75.7149 main 473 462 P_____________ AL031990 29.1999 -75.7149 TD 30 1008 -1 3 221
1990206N34285 1990 56 NA NA BERTHA 1990-07-27 12:00:00 TS 29.1000 -75.8000 30 1008 hurdat_atl main 462 451 O_____________ hurdat_atl AL031990 29.1000 -75.8000 TD 30 1008 -1 3 217
1990206N34285 1990 56 NA NA BERTHA 1990-07-27 15:00:00 TS 28.9500 -75.9301 main 451 439 P_____________ AL031990 28.9500 -75.9301 TD 30 1007 -1 3 210
1990206N34285 1990 56 NA NA BERTHA 1990-07-27 18:00:00 TS 28.8000 -76.0000 30 1007 hurdat_atl main 439 439 O_____________ hurdat_atl AL031990 28.8000 -76.0000 TD 30 1007 -1 3 183
1990206N34285 1990 56 NA NA BERTHA 1990-07-27 21:00:00 TS 28.6625 -75.9448 main 449 442 P_____________ AL031990 28.6625 -75.9448 TD 32 1006 -1 3 138
1990206N34285 1990 56 NA NA BERTHA 1990-07-28 00:00:00 TS 28.6000 -75.8000 35 1005 hurdat_atl main 447 447 O_____________ hurdat_atl AL031990 28.6000 -75.8000 TS 35 1005 0 3 90
1990206N34285 1990 56 NA NA BERTHA 1990-07-28 03:00:00 TS 28.6624 -75.6300 main 467 467 P_____________ AL031990 28.6624 -75.6300 TS 37 1004 0 4 60
1990206N34285 1990 56 NA NA BERTHA 1990-07-28 06:00:00 TS 28.8000 -75.4000 40 1003 hurdat_atl main 486 486 O_____________ hurdat_atl AL031990 28.8000 -75.4000 TS 40 1003 0 5 60
1990206N34285 1990 56 NA NA BERTHA 1990-07-28 09:00:00 TS 28.9275 -75.1149 main 512 512 P_____________ AL031990 28.9275 -75.1149 TS 42 1001 0 6 60
1990206N34285 1990 56 NA NA BERTHA 1990-07-28 12:00:00 TS 29.1000 -74.8000 45 1000 hurdat_atl main 547 547 O_____________ hurdat_atl AL031990 29.1000 -74.8000 TS 45 1000 0 7 53
1990206N34285 1990 56 NA NA BERTHA 1990-07-28 15:00:00 TS 29.3274 -74.4999 main 582 582 P_____________ AL031990 29.3274 -74.4999 TS 50 997 0 7 46
1990206N34285 1990 56 NA NA BERTHA 1990-07-28 18:00:00 TS 29.6000 -74.2000 55 995 hurdat_atl main 598 588 O_____________ hurdat_atl AL031990 29.6000 -74.2000 TS 55 995 0 8 43
1990206N34285 1990 56 NA NA BERTHA 1990-07-28 21:00:00 TS 29.8924 -73.8999 main 588 570 P_____________ AL031990 29.8924 -73.8999 TS 60 992 0 8 41
1990206N34285 1990 56 NA NA BERTHA 1990-07-29 00:00:00 TS 30.2000 -73.6000 65 990 hurdat_atl main 570 550 O_____________ hurdat_atl AL031990 30.2000 -73.6000 HU 65 990 1 8 39
1990206N34285 1990 56 NA NA BERTHA 1990-07-29 03:00:00 TS 30.5073 -73.3148 main 555 538 P_____________ AL031990 30.5073 -73.3148 HU 65 989 1 8 41
1990206N34285 1990 56 NA NA BERTHA 1990-07-29 06:00:00 TS 30.8000 -73.0000 65 988 hurdat_atl main 543 537 O_____________ hurdat_atl AL031990 30.8000 -73.0000 HU 65 988 1 8 47
1990206N34285 1990 56 NA NA BERTHA 1990-07-29 09:00:00 TS 31.0498 -72.6296 main 549 541 P_____________ AL031990 31.0498 -72.6296 HU 65 988 1 8 54
1990206N34285 1990 56 NA NA BERTHA 1990-07-29 12:00:00 TS 31.3000 -72.2000 65 989 hurdat_atl main 551 550 O_____________ hurdat_atl AL031990 31.3000 -72.2000 HU 65 989 1 9 56
1990206N34285 1990 56 NA NA BERTHA 1990-07-29 15:00:00 TS 31.5775 -71.7147 main 563 563 P_____________ AL031990 31.5775 -71.7147 HU 62 989 0 10 55
1990206N34285 1990 56 NA NA BERTHA 1990-07-29 18:00:00 TS 31.9000 -71.2000 60 990 hurdat_atl main 578 578 O_____________ hurdat_atl AL031990 31.9000 -71.2000 TS 60 990 0 11 51
1990206N34285 1990 56 NA NA BERTHA 1990-07-29 21:00:00 TS 32.2698 -70.6995 main 588 588 P_____________ AL031990 32.2698 -70.6995 TS 60 989 0 12 47
1990206N34285 1990 56 NA NA BERTHA 1990-07-30 00:00:00 TS 32.7000 -70.2000 60 989 hurdat_atl main 596 596 O_____________ hurdat_atl AL031990 32.7000 -70.2000 TS 60 989 0 12 43
1990206N34285 1990 56 NA NA BERTHA 1990-07-30 03:00:00 TS 33.1849 -69.6923 main 604 604 P_____________ AL031990 33.1849 -69.6923 TS 60 988 0 13 40
1990206N34285 1990 56 NA NA BERTHA 1990-07-30 06:00:00 TS 33.7000 -69.2000 60 987 hurdat_atl main 620 620 O_____________ hurdat_atl AL031990 33.7000 -69.2000 TS 60 987 0 13 38
1990206N34285 1990 56 NA NA BERTHA 1990-07-30 09:00:00 TS 34.1998 -68.7345 main 643 639 P_____________ AL031990 34.1998 -68.7345 TS 62 986 0 12 37
1990206N34285 1990 56 NA NA BERTHA 1990-07-30 12:00:00 TS 34.7000 -68.3000 65 985 hurdat_atl main 663 661 O_____________ hurdat_atl AL031990 34.7000 -68.3000 HU 65 985 1 12 35
1990206N34285 1990 56 NA NA BERTHA 1990-07-30 15:00:00 TS 35.2075 -67.8699 main 689 689 P_____________ AL031990 35.2075 -67.8699 HU 65 982 1 12 33
1990206N34285 1990 56 NA NA BERTHA 1990-07-30 18:00:00 TS 35.7000 -67.5000 65 979 hurdat_atl main 702 665 O_____________ hurdat_atl AL031990 35.7000 -67.5000 HU 65 979 1 11 29
1990206N34285 1990 56 NA NA BERTHA 1990-07-30 21:00:00 TS 36.1573 -67.2267 main 658 623 P_____________ AL031990 36.1573 -67.2267 HU 67 976 1 10 24
1990206N34285 1990 56 NA NA BERTHA 1990-07-31 00:00:00 TS 36.6000 -67.0000 70 974 hurdat_atl main 623 590 O_____________ hurdat_atl AL031990 36.6000 -67.0000 HU 70 974 1 10 23
1990206N34285 1990 56 NA NA BERTHA 1990-07-31 03:00:00 TS 37.0574 -66.7572 main 580 554 P_____________ AL031990 37.0574 -66.7572 HU 67 974 1 10 24
1990206N34285 1990 56 NA NA BERTHA 1990-07-31 06:00:00 TS 37.5000 -66.5000 65 975 hurdat_atl main 554 532 O_____________ hurdat_atl AL031990 37.5000 -66.5000 HU 65 975 1 10 27
1990206N34285 1990 56 NA NA BERTHA 1990-07-31 09:00:00 TS 37.9150 -66.2073 main 532 514 P_____________ AL031990 37.9150 -66.2073 HU 65 975 1 9 31
1990206N34285 1990 56 NA NA BERTHA 1990-07-31 12:00:00 TS 38.3000 -65.9000 65 976 hurdat_atl main 514 501 O_____________ hurdat_atl AL031990 38.3000 -65.9000 HU 65 976 1 9 32
1990206N34285 1990 56 NA NA BERTHA 1990-07-31 15:00:00 TS 38.6648 -65.6145 main 500 497 P_____________ AL031990 38.6648 -65.6145 HU 65 976 1 8 34
1990206N34285 1990 56 NA NA BERTHA 1990-07-31 18:00:00 TS 39.0000 -65.3000 65 977 hurdat_atl main 497 467 O_____________ hurdat_atl AL031990 39.0000 -65.3000 HU 65 977 1 8 41
1990206N34285 1990 56 NA NA BERTHA 1990-07-31 21:00:00 TS 39.3000 -64.9146 main 468 438 P_____________ AL031990 39.3000 -64.9146 HU 65 977 1 9 46
1990206N34285 1990 56 NA NA BERTHA 1990-08-01 00:00:00 TS 39.6000 -64.5000 65 977 hurdat_atl main 438 410 O_____________ hurdat_atl AL031990 39.6000 -64.5000 HU 65 977 1 9 44
1990206N34285 1990 56 NA NA BERTHA 1990-08-01 03:00:00 TS 39.9347 -64.1143 main 412 379 P_____________ AL031990 39.9347 -64.1143 HU 65 977 1 9 41
1990206N34285 1990 56 NA NA BERTHA 1990-08-01 06:00:00 TS 40.3000 -63.7000 65 977 hurdat_atl main 379 362 O_____________ hurdat_atl AL031990 40.3000 -63.7000 HU 65 977 1 10 43
1990206N34285 1990 56 NA NA BERTHA 1990-08-01 09:00:00 TS 40.6548 -63.2285 main 356 340 P_____________ AL031990 40.6548 -63.2285 HU 65 977 1 11 43
1990206N34285 1990 56 NA NA BERTHA 1990-08-01 12:00:00 TS 41.1000 -62.7000 65 977 hurdat_atl main 341 323 O_____________ hurdat_atl AL031990 41.1000 -62.7000 HU 65 977 1 13 40
1990206N34285 1990 56 NA NA BERTHA 1990-08-01 15:00:00 TS 41.6752 -62.0996 main 320 276 P_____________ AL031990 41.6752 -62.0996 HU 65 976 1 16 35
1990206N34285 1990 56 NA NA BERTHA 1990-08-01 18:00:00 TS 42.4000 -61.5000 65 975 hurdat_atl main 276 212 O_____________ hurdat_atl AL031990 42.4000 -61.5000 HU 65 975 1 18 28
1990206N34285 1990 56 NA NA BERTHA 1990-08-01 21:00:00 TS 43.2625 -60.9481 main 204 131 P_____________ AL031990 43.2625 -60.9481 HU 67 974 1 19 22
1990206N34285 1990 56 NA NA BERTHA 1990-08-02 00:00:00 TS 44.2000 -60.5000 70 973 hurdat_atl main 120 68 O_____________ hurdat_atl AL031990 44.2000 -60.5000 HU 70 973 1 19 17
1990206N34285 1990 56 NA NA BERTHA 1990-08-02 03:00:00 TS 45.0548 -60.1742 main 57 7 P_____________ AL031990 45.0548 -60.1742 HU 65 975 1 18 11
1990206N34285 1990 56 NA NA BERTHA 1990-08-02 06:00:00 ET 46.0000 -60.0000 60 978 hurdat_atl main 0 0 O_____________ hurdat_atl AL031990 46.0000 -60.0000 EX 60 978 -4 21 4
1990206N34285 1990 56 NA NA BERTHA 1990-08-02 09:00:00 ET 47.1401 -59.9617 main 40 40 P_____________ AL031990 47.1401 -59.9617 EX 57 980 -4 24 1
1990206N34285 1990 56 NA NA BERTHA 1990-08-02 12:00:00 ET 48.4000 -60.0000 55 982 hurdat_atl main 69 O_____________ hurdat_atl AL031990 48.4000 -60.0000 EX 55 982 -4 25 0

IBTrACS Databaseについて

本データベースは、米国NOAAが公開する1842年以降の世界の熱帯低気圧のベストトラックデータアーカイブInternational Best Track Archive for Climate Stewardship (IBTrACS)を、ウェブで閲覧しやすい形式に変換したものです。

最終更新日:2021-10-21